sensor_id;sensor_type;location;lat;lon;timestamp;temperature;humidity
4399;DHT22;2213;49.720;7.296;2022-08-30T00:00:09;16.80;94.80
4399;DHT22;2213;49.720;7.296;2022-08-30T00:02:57;16.80;94.60
4399;DHT22;2213;49.720;7.296;2022-08-30T00:05:27;16.70;94.70
4399;DHT22;2213;49.720;7.296;2022-08-30T00:07:59;16.70;94.70
4399;DHT22;2213;49.720;7.296;2022-08-30T00:10:33;16.70;94.60
4399;DHT22;2213;49.720;7.296;2022-08-30T00:13:03;16.60;95.00
4399;DHT22;2213;49.720;7.296;2022-08-30T00:15:33;16.60;95.00
4399;DHT22;2213;49.720;7.296;2022-08-30T00:18:02;16.60;94.90
4399;DHT22;2213;49.720;7.296;2022-08-30T00:20:33;16.60;94.90
4399;DHT22;2213;49.720;7.296;2022-08-30T00:23:05;16.50;95.00
4399;DHT22;2213;49.720;7.296;2022-08-30T00:25:34;16.40;95.00
4399;DHT22;2213;49.720;7.296;2022-08-30T00:28:03;16.40;95.10
4399;DHT22;2213;49.720;7.296;2022-08-30T00:30:32;16.40;95.30
4399;DHT22;2213;49.720;7.296;2022-08-30T00:33:01;16.40;95.30
4399;DHT22;2213;49.720;7.296;2022-08-30T00:35:30;16.40;95.20
4399;DHT22;2213;49.720;7.296;2022-08-30T00:37:59;16.30;95.30
4399;DHT22;2213;49.720;7.296;2022-08-30T00:40:31;16.20;95.40
4399;DHT22;2213;49.720;7.296;2022-08-30T00:43:00;16.20;95.50
4399;DHT22;2213;49.720;7.296;2022-08-30T00:45:34;16.20;95.50
4399;DHT22;2213;49.720;7.296;2022-08-30T00:48:06;16.10;95.60
4399;DHT22;2213;49.720;7.296;2022-08-30T00:50:38;16.20;95.30
4399;DHT22;2213;49.720;7.296;2022-08-30T00:53:14;16.30;95.20
4399;DHT22;2213;49.720;7.296;2022-08-30T00:55:48;16.20;95.30
4399;DHT22;2213;49.720;7.296;2022-08-30T00:58:20;16.10;95.80
4399;DHT22;2213;49.720;7.296;2022-08-30T01:00:54;16.10;95.50
4399;DHT22;2213;49.720;7.296;2022-08-30T01:03:24;16.00;95.50
4399;DHT22;2213;49.720;7.296;2022-08-30T01:05:56;16.00;95.70
4399;DHT22;2213;49.720;7.296;2022-08-30T01:08:26;16.00;95.60
4399;DHT22;2213;49.720;7.296;2022-08-30T01:10:56;16.00;95.60
4399;DHT22;2213;49.720;7.296;2022-08-30T01:13:26;15.90;95.60
4399;DHT22;2213;49.720;7.296;2022-08-30T01:15:56;15.90;95.90
4399;DHT22;2213;49.720;7.296;2022-08-30T01:18:28;15.90;95.60
4399;DHT22;2213;49.720;7.296;2022-08-30T01:21:03;15.80;95.90
4399;DHT22;2213;49.720;7.296;2022-08-30T01:23:43;15.80;95.80
4399;DHT22;2213;49.720;7.296;2022-08-30T01:26:15;15.80;95.80
4399;DHT22;2213;49.720;7.296;2022-08-30T01:28:51;15.80;95.70
4399;DHT22;2213;49.720;7.296;2022-08-30T01:31:22;15.80;95.80
4399;DHT22;2213;49.720;7.296;2022-08-30T01:33:51;15.70;95.90
4399;DHT22;2213;49.720;7.296;2022-08-30T01:36:21;15.70;96.00
4399;DHT22;2213;49.720;7.296;2022-08-30T01:38:55;15.60;96.10
4399;DHT22;2213;49.720;7.296;2022-08-30T01:41:28;15.60;96.20
4399;DHT22;2213;49.720;7.296;2022-08-30T01:44:01;15.60;96.20
4399;DHT22;2213;49.720;7.296;2022-08-30T01:46:36;15.50;96.10
4399;DHT22;2213;49.720;7.296;2022-08-30T01:49:10;15.50;96.50
4399;DHT22;2213;49.720;7.296;2022-08-30T01:51:43;15.60;96.10
4399;DHT22;2213;49.720;7.296;2022-08-30T01:54:14;15.60;96.20
4399;DHT22;2213;49.720;7.296;2022-08-30T01:56:42;15.60;96.10
4399;DHT22;2213;49.720;7.296;2022-08-30T01:59:11;15.50;96.00
4399;DHT22;2213;49.720;7.296;2022-08-30T02:01:40;15.60;96.10
4399;DHT22;2213;49.720;7.296;2022-08-30T02:04:09;15.50;96.10
4399;DHT22;2213;49.720;7.296;2022-08-30T02:06:40;15.60;96.10
4399;DHT22;2213;49.720;7.296;2022-08-30T02:09:11;15.60;95.90
4399;DHT22;2213;49.720;7.296;2022-08-30T02:11:42;15.50;95.90
4399;DHT22;2213;49.720;7.296;2022-08-30T02:14:11;15.50;95.90
4399;DHT22;2213;49.720;7.296;2022-08-30T02:16:40;15.50;96.10
4399;DHT22;2213;49.720;7.296;2022-08-30T02:19:10;15.40;96.00
4399;DHT22;2213;49.720;7.296;2022-08-30T02:21:40;15.30;96.10
4399;DHT22;2213;49.720;7.296;2022-08-30T02:24:09;15.30;96.30
4399;DHT22;2213;49.720;7.296;2022-08-30T02:26:38;15.40;96.00
4399;DHT22;2213;49.720;7.296;2022-08-30T02:29:08;15.30;96.30
4399;DHT22;2213;49.720;7.296;2022-08-30T02:31:37;15.30;96.30
4399;DHT22;2213;49.720;7.296;2022-08-30T02:34:06;15.30;96.10
4399;DHT22;2213;49.720;7.296;2022-08-30T02:36:34;15.30;96.10
4399;DHT22;2213;49.720;7.296;2022-08-30T02:39:05;15.30;96.20
4399;DHT22;2213;49.720;7.296;2022-08-30T02:41:34;15.30;96.20
4399;DHT22;2213;49.720;7.296;2022-08-30T02:44:05;15.30;96.10
4399;DHT22;2213;49.720;7.296;2022-08-30T02:46:36;15.20;96.10
4399;DHT22;2213;49.720;7.296;2022-08-30T02:49:06;15.20;96.10
4399;DHT22;2213;49.720;7.296;2022-08-30T02:51:55;15.20;96.10
4399;DHT22;2213;49.720;7.296;2022-08-30T02:54:25;15.20;96.20
4399;DHT22;2213;49.720;7.296;2022-08-30T02:56:54;15.10;96.20
4399;DHT22;2213;49.720;7.296;2022-08-30T02:59:23;15.20;96.10
4399;DHT22;2213;49.720;7.296;2022-08-30T03:01:54;15.10;96.20
4399;DHT22;2213;49.720;7.296;2022-08-30T03:04:23;15.10;96.20
4399;DHT22;2213;49.720;7.296;2022-08-30T03:07:11;15.10;96.30
4399;DHT22;2213;49.720;7.296;2022-08-30T03:09:41;15.10;96.20
4399;DHT22;2213;49.720;7.296;2022-08-30T03:12:10;15.00;96.30
4399;DHT22;2213;49.720;7.296;2022-08-30T03:14:40;15.10;96.20
4399;DHT22;2213;49.720;7.296;2022-08-30T03:17:11;15.10;96.30
4399;DHT22;2213;49.720;7.296;2022-08-30T03:19:42;15.10;96.30
4399;DHT22;2213;49.720;7.296;2022-08-30T03:22:12;15.10;96.20
4399;DHT22;2213;49.720;7.296;2022-08-30T03:24:41;15.00;96.20
4399;DHT22;2213;49.720;7.296;2022-08-30T03:27:11;15.10;96.20
4399;DHT22;2213;49.720;7.296;2022-08-30T03:29:41;15.00;96.10
4399;DHT22;2213;49.720;7.296;2022-08-30T03:32:12;15.10;96.00
4399;DHT22;2213;49.720;7.296;2022-08-30T03:34:41;15.00;96.10
4399;DHT22;2213;49.720;7.296;2022-08-30T03:37:10;15.00;95.90
4399;DHT22;2213;49.720;7.296;2022-08-30T03:39:39;15.00;95.90
4399;DHT22;2213;49.720;7.296;2022-08-30T03:42:08;14.90;96.10
4399;DHT22;2213;49.720;7.296;2022-08-30T03:44:38;14.90;96.20
4399;DHT22;2213;49.720;7.296;2022-08-30T03:47:08;15.00;96.00
4399;DHT22;2213;49.720;7.296;2022-08-30T03:49:38;14.90;96.10
4399;DHT22;2213;49.720;7.296;2022-08-30T03:52:07;14.80;96.30
4399;DHT22;2213;49.720;7.296;2022-08-30T03:54:36;14.80;96.30
4399;DHT22;2213;49.720;7.296;2022-08-30T03:57:07;14.90;96.30
4399;DHT22;2213;49.720;7.296;2022-08-30T03:59:46;14.80;96.20
4399;DHT22;2213;49.720;7.296;2022-08-30T04:02:15;14.80;96.30
4399;DHT22;2213;49.720;7.296;2022-08-30T04:04:46;14.70;96.20
4399;DHT22;2213;49.720;7.296;2022-08-30T04:07:15;14.70;96.40
4399;DHT22;2213;49.720;7.296;2022-08-30T04:09:45;14.70;96.40
4399;DHT22;2213;49.720;7.296;2022-08-30T04:12:14;14.70;96.30
4399;DHT22;2213;49.720;7.296;2022-08-30T04:14:48;14.70;96.30
4399;DHT22;2213;49.720;7.296;2022-08-30T04:17:19;14.70;96.30
4399;DHT22;2213;49.720;7.296;2022-08-30T04:19:50;14.70;96.40
4399;DHT22;2213;49.720;7.296;2022-08-30T04:22:19;14.70;96.40
4399;DHT22;2213;49.720;7.296;2022-08-30T04:24:49;14.70;96.50
4399;DHT22;2213;49.720;7.296;2022-08-30T04:27:18;14.70;96.50
4399;DHT22;2213;49.720;7.296;2022-08-30T04:29:48;14.60;96.40
4399;DHT22;2213;49.720;7.296;2022-08-30T04:32:17;14.60;96.40
4399;DHT22;2213;49.720;7.296;2022-08-30T04:34:47;14.60;96.60
4399;DHT22;2213;49.720;7.296;2022-08-30T04:37:17;14.50;96.40
4399;DHT22;2213;49.720;7.296;2022-08-30T04:39:47;14.50;96.40
4399;DHT22;2213;49.720;7.296;2022-08-30T04:42:17;14.40;96.60
4399;DHT22;2213;49.720;7.296;2022-08-30T04:44:46;14.40;96.70
4399;DHT22;2213;49.720;7.296;2022-08-30T04:47:17;14.40;96.60
4399;DHT22;2213;49.720;7.296;2022-08-30T04:49:46;14.40;96.70
4399;DHT22;2213;49.720;7.296;2022-08-30T04:52:16;14.30;96.70
4399;DHT22;2213;49.720;7.296;2022-08-30T04:54:45;14.30;96.80
4399;DHT22;2213;49.720;7.296;2022-08-30T04:57:15;14.30;96.60
4399;DHT22;2213;49.720;7.296;2022-08-30T04:59:43;14.20;97.00
4399;DHT22;2213;49.720;7.296;2022-08-30T05:02:13;14.30;96.80
4399;DHT22;2213;49.720;7.296;2022-08-30T05:04:42;14.20;97.00
4399;DHT22;2213;49.720;7.296;2022-08-30T05:07:26;14.10;97.10
4399;DHT22;2213;49.720;7.296;2022-08-30T05:09:57;14.10;97.30
4399;DHT22;2213;49.720;7.296;2022-08-30T05:12:26;14.20;97.00
4399;DHT22;2213;49.720;7.296;2022-08-30T05:14:55;14.20;97.20
4399;DHT22;2213;49.720;7.296;2022-08-30T05:17:24;14.10;97.10
4399;DHT22;2213;49.720;7.296;2022-08-30T05:19:53;14.10;97.20
4399;DHT22;2213;49.720;7.296;2022-08-30T05:22:22;14.10;97.40
4399;DHT22;2213;49.720;7.296;2022-08-30T05:24:52;14.10;97.50
4399;DHT22;2213;49.720;7.296;2022-08-30T05:27:21;14.10;97.40
4399;DHT22;2213;49.720;7.296;2022-08-30T05:29:50;14.10;97.50
4399;DHT22;2213;49.720;7.296;2022-08-30T05:32:19;14.10;97.60
4399;DHT22;2213;49.720;7.296;2022-08-30T05:34:49;14.20;97.30
4399;DHT22;2213;49.720;7.296;2022-08-30T05:37:17;14.20;97.50
4399;DHT22;2213;49.720;7.296;2022-08-30T05:39:46;14.10;97.50
4399;DHT22;2213;49.720;7.296;2022-08-30T05:42:19;14.30;97.30
4399;DHT22;2213;49.720;7.296;2022-08-30T05:44:50;14.30;97.30
4399;DHT22;2213;49.720;7.296;2022-08-30T05:47:20;14.30;97.30
4399;DHT22;2213;49.720;7.296;2022-08-30T05:49:49;14.30;97.40
4399;DHT22;2213;49.720;7.296;2022-08-30T05:52:18;14.40;97.30
4399;DHT22;2213;49.720;7.296;2022-08-30T05:54:51;14.50;97.30
4399;DHT22;2213;49.720;7.296;2022-08-30T05:57:23;14.50;97.20
4399;DHT22;2213;49.720;7.296;2022-08-30T05:59:52;14.50;97.30
4399;DHT22;2213;49.720;7.296;2022-08-30T06:02:21;14.50;97.50
4399;DHT22;2213;49.720;7.296;2022-08-30T06:04:49;14.50;97.50
4399;DHT22;2213;49.720;7.296;2022-08-30T06:07:18;14.50;97.40
4399;DHT22;2213;49.720;7.296;2022-08-30T06:09:49;14.60;97.40
4399;DHT22;2213;49.720;7.296;2022-08-30T06:12:17;14.70;97.30
4399;DHT22;2213;49.720;7.296;2022-08-30T06:14:48;14.70;97.30
4399;DHT22;2213;49.720;7.296;2022-08-30T06:17:19;14.80;97.20
4399;DHT22;2213;49.720;7.296;2022-08-30T06:19:47;14.80;97.10
4399;DHT22;2213;49.720;7.296;2022-08-30T06:22:17;14.90;97.10
4399;DHT22;2213;49.720;7.296;2022-08-30T06:24:45;15.00;97.30
4399;DHT22;2213;49.720;7.296;2022-08-30T06:27:24;15.10;97.40
4399;DHT22;2213;49.720;7.296;2022-08-30T06:29:54;15.20;97.30
4399;DHT22;2213;49.720;7.296;2022-08-30T06:32:23;15.30;97.30
4399;DHT22;2213;49.720;7.296;2022-08-30T06:34:52;15.30;97.30
4399;DHT22;2213;49.720;7.296;2022-08-30T06:37:21;15.30;97.10
4399;DHT22;2213;49.720;7.296;2022-08-30T06:39:56;15.40;97.20
4399;DHT22;2213;49.720;7.296;2022-08-30T06:42:26;15.50;97.10
4399;DHT22;2213;49.720;7.296;2022-08-30T06:45:00;15.60;96.90
4399;DHT22;2213;49.720;7.296;2022-08-30T06:47:37;15.60;96.90
4399;DHT22;2213;49.720;7.296;2022-08-30T06:50:11;15.70;96.80
4399;DHT22;2213;49.720;7.296;2022-08-30T06:52:42;15.80;96.60
4399;DHT22;2213;49.720;7.296;2022-08-30T06:55:14;15.80;96.60
4399;DHT22;2213;49.720;7.296;2022-08-30T06:57:44;15.90;96.70
4399;DHT22;2213;49.720;7.296;2022-08-30T07:00:15;16.00;96.70
4399;DHT22;2213;49.720;7.296;2022-08-30T07:02:44;16.10;96.60
4399;DHT22;2213;49.720;7.296;2022-08-30T07:05:13;16.10;96.50
4399;DHT22;2213;49.720;7.296;2022-08-30T07:07:44;16.20;96.40
4399;DHT22;2213;49.720;7.296;2022-08-30T07:10:14;16.30;96.30
4399;DHT22;2213;49.720;7.296;2022-08-30T07:12:43;16.40;96.30
4399;DHT22;2213;49.720;7.296;2022-08-30T07:15:13;16.50;96.00
4399;DHT22;2213;49.720;7.296;2022-08-30T07:17:46;16.60;96.30
4399;DHT22;2213;49.720;7.296;2022-08-30T07:20:32;16.60;96.40
4399;DHT22;2213;49.720;7.296;2022-08-30T07:23:07;16.70;96.30
4399;DHT22;2213;49.720;7.296;2022-08-30T07:25:37;16.80;96.10
4399;DHT22;2213;49.720;7.296;2022-08-30T07:28:08;16.90;95.90
4399;DHT22;2213;49.720;7.296;2022-08-30T07:30:40;17.00;95.70
4399;DHT22;2213;49.720;7.296;2022-08-30T07:33:09;17.00;95.40
4399;DHT22;2213;49.720;7.296;2022-08-30T07:35:37;17.20;95.30
4399;DHT22;2213;49.720;7.296;2022-08-30T07:38:06;17.30;95.00
4399;DHT22;2213;49.720;7.296;2022-08-30T07:40:39;17.40;94.90
4399;DHT22;2213;49.720;7.296;2022-08-30T07:43:08;17.50;94.10
4399;DHT22;2213;49.720;7.296;2022-08-30T07:45:39;17.60;94.20
4399;DHT22;2213;49.720;7.296;2022-08-30T07:48:11;17.70;94.10
4399;DHT22;2213;49.720;7.296;2022-08-30T07:50:43;17.80;93.80
4399;DHT22;2213;49.720;7.296;2022-08-30T07:53:13;17.80;93.70
4399;DHT22;2213;49.720;7.296;2022-08-30T07:55:41;17.90;93.30
4399;DHT22;2213;49.720;7.296;2022-08-30T07:58:10;18.00;93.50
4399;DHT22;2213;49.720;7.296;2022-08-30T08:00:40;18.10;93.00
4399;DHT22;2213;49.720;7.296;2022-08-30T08:03:10;18.20;93.20
4399;DHT22;2213;49.720;7.296;2022-08-30T08:05:39;18.30;92.60
4399;DHT22;2213;49.720;7.296;2022-08-30T08:08:10;18.40;92.60
4399;DHT22;2213;49.720;7.296;2022-08-30T08:10:40;18.50;92.80
4399;DHT22;2213;49.720;7.296;2022-08-30T08:13:10;18.50;92.70
4399;DHT22;2213;49.720;7.296;2022-08-30T08:15:40;18.60;92.60
4399;DHT22;2213;49.720;7.296;2022-08-30T08:18:10;18.60;92.60
4399;DHT22;2213;49.720;7.296;2022-08-30T08:20:39;18.70;92.70
4399;DHT22;2213;49.720;7.296;2022-08-30T08:23:08;18.70;92.60
4399;DHT22;2213;49.720;7.296;2022-08-30T08:25:39;18.80;92.60
4399;DHT22;2213;49.720;7.296;2022-08-30T08:28:09;18.90;92.40
4399;DHT22;2213;49.720;7.296;2022-08-30T08:30:39;19.00;92.20
4399;DHT22;2213;49.720;7.296;2022-08-30T08:33:14;19.10;92.30
4399;DHT22;2213;49.720;7.296;2022-08-30T08:35:44;19.10;92.30
4399;DHT22;2213;49.720;7.296;2022-08-30T08:38:12;19.10;91.80
4399;DHT22;2213;49.720;7.296;2022-08-30T08:40:50;19.30;91.70
4399;DHT22;2213;49.720;7.296;2022-08-30T08:43:28;19.30;91.60
4399;DHT22;2213;49.720;7.296;2022-08-30T08:46:05;19.40;91.70
4399;DHT22;2213;49.720;7.296;2022-08-30T08:48:44;19.50;91.50
4399;DHT22;2213;49.720;7.296;2022-08-30T08:51:33;19.50;91.40
4399;DHT22;2213;49.720;7.296;2022-08-30T08:54:24;19.60;91.60
4399;DHT22;2213;49.720;7.296;2022-08-30T08:56:59;19.70;91.20
4399;DHT22;2213;49.720;7.296;2022-08-30T08:59:28;19.70;91.50
4399;DHT22;2213;49.720;7.296;2022-08-30T09:02:00;19.70;91.20
4399;DHT22;2213;49.720;7.296;2022-08-30T09:04:42;19.70;91.20
4399;DHT22;2213;49.720;7.296;2022-08-30T09:07:17;19.90;91.00
4399;DHT22;2213;49.720;7.296;2022-08-30T09:09:49;19.90;90.60
4399;DHT22;2213;49.720;7.296;2022-08-30T09:12:18;19.90;90.60
4399;DHT22;2213;49.720;7.296;2022-08-30T09:14:51;20.00;90.70
4399;DHT22;2213;49.720;7.296;2022-08-30T09:17:23;20.20;90.80
4399;DHT22;2213;49.720;7.296;2022-08-30T09:19:58;20.20;90.80
4399;DHT22;2213;49.720;7.296;2022-08-30T09:22:32;20.30;90.50
4399;DHT22;2213;49.720;7.296;2022-08-30T09:25:08;20.50;90.50
4399;DHT22;2213;49.720;7.296;2022-08-30T09:27:51;20.50;90.30
4399;DHT22;2213;49.720;7.296;2022-08-30T09:30:23;20.70;90.10
4399;DHT22;2213;49.720;7.296;2022-08-30T09:32:57;20.90;88.90
4399;DHT22;2213;49.720;7.296;2022-08-30T09:35:34;20.90;89.20
4399;DHT22;2213;49.720;7.296;2022-08-30T09:38:06;21.00;89.40
4399;DHT22;2213;49.720;7.296;2022-08-30T09:40:41;21.00;88.60
4399;DHT22;2213;49.720;7.296;2022-08-30T09:43:20;21.20;88.00
4399;DHT22;2213;49.720;7.296;2022-08-30T09:46:06;21.30;87.40
4399;DHT22;2213;49.720;7.296;2022-08-30T09:48:44;21.40;87.90
4399;DHT22;2213;49.720;7.296;2022-08-30T09:51:40;21.60;86.80
4399;DHT22;2213;49.720;7.296;2022-08-30T09:54:20;21.70;86.70
4399;DHT22;2213;49.720;7.296;2022-08-30T09:57:05;21.80;86.60
4399;DHT22;2213;49.720;7.296;2022-08-30T09:59:45;21.90;86.30
4399;DHT22;2213;49.720;7.296;2022-08-30T10:02:50;22.00;86.00
4399;DHT22;2213;49.720;7.296;2022-08-30T10:05:48;22.00;86.40
4399;DHT22;2213;49.720;7.296;2022-08-30T10:08:32;22.10;86.40
4399;DHT22;2213;49.720;7.296;2022-08-30T10:11:15;22.30;85.50
4399;DHT22;2213;49.720;7.296;2022-08-30T10:14:06;22.30;85.40
4399;DHT22;2213;49.720;7.296;2022-08-30T10:17:03;22.30;85.50
4399;DHT22;2213;49.720;7.296;2022-08-30T10:19:49;22.40;86.00
4399;DHT22;2213;49.720;7.296;2022-08-30T10:22:34;22.40;85.90
4399;DHT22;2213;49.720;7.296;2022-08-30T10:25:10;22.50;85.30
4399;DHT22;2213;49.720;7.296;2022-08-30T10:27:46;22.50;85.30
4399;DHT22;2213;49.720;7.296;2022-08-30T10:30:19;22.60;85.50
4399;DHT22;2213;49.720;7.296;2022-08-30T10:32:53;22.70;85.50
4399;DHT22;2213;49.720;7.296;2022-08-30T10:35:29;22.70;85.20
4399;DHT22;2213;49.720;7.296;2022-08-30T10:38:10;22.70;85.50
4399;DHT22;2213;49.720;7.296;2022-08-30T10:40:49;22.80;85.10
4399;DHT22;2213;49.720;7.296;2022-08-30T10:43:46;22.80;85.30
4399;DHT22;2213;49.720;7.296;2022-08-30T10:46:26;22.90;85.40
4399;DHT22;2213;49.720;7.296;2022-08-30T10:49:02;23.10;84.40
4399;DHT22;2213;49.720;7.296;2022-08-30T10:51:39;23.10;84.40
4399;DHT22;2213;49.720;7.296;2022-08-30T10:54:22;23.30;84.00
4399;DHT22;2213;49.720;7.296;2022-08-30T10:56:59;23.40;84.10
4399;DHT22;2213;49.720;7.296;2022-08-30T10:59:28;23.40;83.60
4399;DHT22;2213;49.720;7.296;2022-08-30T11:02:18;23.50;83.60
4399;DHT22;2213;49.720;7.296;2022-08-30T11:05:28;23.60;83.30
4399;DHT22;2213;49.720;7.296;2022-08-30T11:08:18;23.60;83.10
4399;DHT22;2213;49.720;7.296;2022-08-30T11:11:17;23.70;82.90
4399;DHT22;2213;49.720;7.296;2022-08-30T11:13:57;23.70;83.10
4399;DHT22;2213;49.720;7.296;2022-08-30T11:16:36;23.70;83.20
4399;DHT22;2213;49.720;7.296;2022-08-30T11:19:16;23.70;82.90
4399;DHT22;2213;49.720;7.296;2022-08-30T11:21:48;23.70;82.70
4399;DHT22;2213;49.720;7.296;2022-08-30T11:24:19;23.80;83.40
4399;DHT22;2213;49.720;7.296;2022-08-30T11:26:59;23.80;82.70
4399;DHT22;2213;49.720;7.296;2022-08-30T11:29:41;24.00;82.70
4399;DHT22;2213;49.720;7.296;2022-08-30T11:35:41;24.00;82.80
4399;DHT22;2213;49.720;7.296;2022-08-30T11:38:19;24.00;83.10
4399;DHT22;2213;49.720;7.296;2022-08-30T11:41:35;24.10;82.00
4399;DHT22;2213;49.720;7.296;2022-08-30T11:44:27;24.00;82.20
4399;DHT22;2213;49.720;7.296;2022-08-30T11:47:00;24.00;83.60
4399;DHT22;2213;49.720;7.296;2022-08-30T11:49:56;24.20;81.60
4399;DHT22;2213;49.720;7.296;2022-08-30T11:52:49;24.20;81.40
4399;DHT22;2213;49.720;7.296;2022-08-30T11:55:37;24.30;81.70
4399;DHT22;2213;49.720;7.296;2022-08-30T11:58:27;24.30;80.80
4399;DHT22;2213;49.720;7.296;2022-08-30T12:01:18;24.40;81.20
4399;DHT22;2213;49.720;7.296;2022-08-30T12:04:26;24.60;80.20
4399;DHT22;2213;49.720;7.296;2022-08-30T12:07:05;24.60;80.90
4399;DHT22;2213;49.720;7.296;2022-08-30T12:10:04;24.60;80.60
4399;DHT22;2213;49.720;7.296;2022-08-30T12:12:56;24.80;80.00
4399;DHT22;2213;49.720;7.296;2022-08-30T12:18:36;24.90;78.40
4399;DHT22;2213;49.720;7.296;2022-08-30T12:21:24;25.00;78.70
4399;DHT22;2213;49.720;7.296;2022-08-30T12:24:16;25.00;78.90
4399;DHT22;2213;49.720;7.296;2022-08-30T12:26:49;25.10;79.00
4399;DHT22;2213;49.720;7.296;2022-08-30T12:29:21;25.10;78.10
4399;DHT22;2213;49.720;7.296;2022-08-30T12:31:52;25.20;77.80
4399;DHT22;2213;49.720;7.296;2022-08-30T12:34:28;25.20;77.70
4399;DHT22;2213;49.720;7.296;2022-08-30T12:37:04;25.40;76.00
4399;DHT22;2213;49.720;7.296;2022-08-30T12:39:38;25.50;75.40
4399;DHT22;2213;49.720;7.296;2022-08-30T12:42:16;25.60;75.00
4399;DHT22;2213;49.720;7.296;2022-08-30T12:44:49;25.60;75.20
4399;DHT22;2213;49.720;7.296;2022-08-30T12:47:23;25.60;75.80
4399;DHT22;2213;49.720;7.296;2022-08-30T12:49:59;25.60;74.90
4399;DHT22;2213;49.720;7.296;2022-08-30T12:52:33;25.50;74.90
4399;DHT22;2213;49.720;7.296;2022-08-30T12:55:09;25.60;75.80
4399;DHT22;2213;49.720;7.296;2022-08-30T12:57:56;25.80;75.40
4399;DHT22;2213;49.720;7.296;2022-08-30T13:00:29;25.80;74.80
4399;DHT22;2213;49.720;7.296;2022-08-30T13:03:04;25.80;74.20
4399;DHT22;2213;49.720;7.296;2022-08-30T13:05:52;25.90;73.70
4399;DHT22;2213;49.720;7.296;2022-08-30T13:08:26;26.10;73.40
4399;DHT22;2213;49.720;7.296;2022-08-30T13:11:03;26.20;72.80
4399;DHT22;2213;49.720;7.296;2022-08-30T13:13:39;26.20;73.40
4399;DHT22;2213;49.720;7.296;2022-08-30T13:16:24;26.20;72.30
4399;DHT22;2213;49.720;7.296;2022-08-30T13:19:25;26.20;71.70
4399;DHT22;2213;49.720;7.296;2022-08-30T13:22:01;26.30;72.30
4399;DHT22;2213;49.720;7.296;2022-08-30T13:24:31;26.40;72.40
4399;DHT22;2213;49.720;7.296;2022-08-30T13:27:03;26.50;73.40
4399;DHT22;2213;49.720;7.296;2022-08-30T13:29:35;26.70;72.40
4399;DHT22;2213;49.720;7.296;2022-08-30T13:32:04;26.70;71.80
4399;DHT22;2213;49.720;7.296;2022-08-30T13:34:33;26.70;72.20
4399;DHT22;2213;49.720;7.296;2022-08-30T13:37:03;26.80;72.70
4399;DHT22;2213;49.720;7.296;2022-08-30T13:39:55;26.70;72.80
4399;DHT22;2213;49.720;7.296;2022-08-30T13:42:30;26.70;72.40
4399;DHT22;2213;49.720;7.296;2022-08-30T13:44:59;26.80;73.00
4399;DHT22;2213;49.720;7.296;2022-08-30T13:47:28;26.70;72.30
4399;DHT22;2213;49.720;7.296;2022-08-30T13:50:01;26.70;72.00
4399;DHT22;2213;49.720;7.296;2022-08-30T13:52:31;26.70;72.30
4399;DHT22;2213;49.720;7.296;2022-08-30T13:55:00;26.80;72.40
4399;DHT22;2213;49.720;7.296;2022-08-30T13:57:30;26.80;70.60
4399;DHT22;2213;49.720;7.296;2022-08-30T14:00:20;26.70;71.80
4399;DHT22;2213;49.720;7.296;2022-08-30T14:02:50;26.70;70.90
4399;DHT22;2213;49.720;7.296;2022-08-30T14:05:27;26.60;71.70
4399;DHT22;2213;49.720;7.296;2022-08-30T14:08:21;26.60;72.00
4399;DHT22;2213;49.720;7.296;2022-08-30T14:11:12;26.60;71.50
4399;DHT22;2213;49.720;7.296;2022-08-30T14:13:45;26.50;71.40
4399;DHT22;2213;49.720;7.296;2022-08-30T14:16:35;26.50;71.90
4399;DHT22;2213;49.720;7.296;2022-08-30T14:19:05;26.50;71.30
4399;DHT22;2213;49.720;7.296;2022-08-30T14:21:35;26.30;71.10
4399;DHT22;2213;49.720;7.296;2022-08-30T14:24:06;26.40;71.10
4399;DHT22;2213;49.720;7.296;2022-08-30T14:26:37;26.40;71.60
4399;DHT22;2213;49.720;7.296;2022-08-30T14:29:13;26.30;71.70
4399;DHT22;2213;49.720;7.296;2022-08-30T14:31:44;26.40;71.80
4399;DHT22;2213;49.720;7.296;2022-08-30T14:34:20;26.40;72.00
4399;DHT22;2213;49.720;7.296;2022-08-30T14:36:49;26.40;71.80
4399;DHT22;2213;49.720;7.296;2022-08-30T14:39:19;26.40;71.70
4399;DHT22;2213;49.720;7.296;2022-08-30T14:41:51;26.40;71.30
4399;DHT22;2213;49.720;7.296;2022-08-30T14:44:22;26.40;71.00
4399;DHT22;2213;49.720;7.296;2022-08-30T14:46:53;26.40;71.80
4399;DHT22;2213;49.720;7.296;2022-08-30T14:49:23;26.40;71.60
4399;DHT22;2213;49.720;7.296;2022-08-30T14:51:53;26.40;72.00
4399;DHT22;2213;49.720;7.296;2022-08-30T14:54:24;26.40;71.40
4399;DHT22;2213;49.720;7.296;2022-08-30T14:56:56;26.40;71.80
4399;DHT22;2213;49.720;7.296;2022-08-30T14:59:25;26.40;72.20
4399;DHT22;2213;49.720;7.296;2022-08-30T15:01:54;26.60;71.90
4399;DHT22;2213;49.720;7.296;2022-08-30T15:04:23;26.50;72.00
4399;DHT22;2213;49.720;7.296;2022-08-30T15:06:52;26.60;71.40
4399;DHT22;2213;49.720;7.296;2022-08-30T15:09:23;26.60;71.40
4399;DHT22;2213;49.720;7.296;2022-08-30T15:11:56;26.60;71.20
4399;DHT22;2213;49.720;7.296;2022-08-30T15:14:29;26.70;71.60
4399;DHT22;2213;49.720;7.296;2022-08-30T15:16:59;26.80;70.30
4399;DHT22;2213;49.720;7.296;2022-08-30T15:19:29;26.80;69.90
4399;DHT22;2213;49.720;7.296;2022-08-30T15:22:00;26.90;69.20
4399;DHT22;2213;49.720;7.296;2022-08-30T15:24:32;26.90;69.60
4399;DHT22;2213;49.720;7.296;2022-08-30T15:27:02;27.00;69.30
4399;DHT22;2213;49.720;7.296;2022-08-30T15:29:34;26.90;69.40
4399;DHT22;2213;49.720;7.296;2022-08-30T15:32:05;26.90;69.00
4399;DHT22;2213;49.720;7.296;2022-08-30T15:34:35;26.80;68.90
4399;DHT22;2213;49.720;7.296;2022-08-30T15:37:04;26.80;68.60
4399;DHT22;2213;49.720;7.296;2022-08-30T15:39:35;26.90;68.40
4399;DHT22;2213;49.720;7.296;2022-08-30T15:42:06;26.70;68.60
4399;DHT22;2213;49.720;7.296;2022-08-30T15:44:36;26.70;68.90
4399;DHT22;2213;49.720;7.296;2022-08-30T15:47:05;26.90;68.30
4399;DHT22;2213;49.720;7.296;2022-08-30T15:49:33;26.80;68.40
4399;DHT22;2213;49.720;7.296;2022-08-30T15:52:04;26.80;68.80
4399;DHT22;2213;49.720;7.296;2022-08-30T15:54:35;26.80;68.90
4399;DHT22;2213;49.720;7.296;2022-08-30T15:57:04;26.80;68.80
4399;DHT22;2213;49.720;7.296;2022-08-30T15:59:32;26.80;69.00
4399;DHT22;2213;49.720;7.296;2022-08-30T16:02:01;26.80;68.50
4399;DHT22;2213;49.720;7.296;2022-08-30T16:04:31;26.80;69.00
4399;DHT22;2213;49.720;7.296;2022-08-30T16:07:00;26.70;68.90
4399;DHT22;2213;49.720;7.296;2022-08-30T16:09:29;26.70;68.70
4399;DHT22;2213;49.720;7.296;2022-08-30T16:12:01;26.60;69.90
4399;DHT22;2213;49.720;7.296;2022-08-30T16:14:30;26.60;68.70
4399;DHT22;2213;49.720;7.296;2022-08-30T16:17:00;26.50;68.40
4399;DHT22;2213;49.720;7.296;2022-08-30T16:19:30;26.50;67.40
4399;DHT22;2213;49.720;7.296;2022-08-30T16:21:59;26.50;68.30
4399;DHT22;2213;49.720;7.296;2022-08-30T16:24:29;26.40;68.80
4399;DHT22;2213;49.720;7.296;2022-08-30T16:27:00;26.50;68.40
4399;DHT22;2213;49.720;7.296;2022-08-30T16:29:31;26.50;68.80
4399;DHT22;2213;49.720;7.296;2022-08-30T16:32:02;26.40;69.30
4399;DHT22;2213;49.720;7.296;2022-08-30T16:34:31;26.40;69.50
4399;DHT22;2213;49.720;7.296;2022-08-30T16:37:03;26.40;69.90
4399;DHT22;2213;49.720;7.296;2022-08-30T16:39:33;26.30;69.40
4399;DHT22;2213;49.720;7.296;2022-08-30T16:42:04;26.30;69.70
4399;DHT22;2213;49.720;7.296;2022-08-30T16:44:34;26.30;70.00
4399;DHT22;2213;49.720;7.296;2022-08-30T16:47:02;26.30;70.60
4399;DHT22;2213;49.720;7.296;2022-08-30T16:49:34;26.30;70.30